Terminal Aerodrome Forecast
Issued by NWS Quad Cities IA IL

Home | Current Version | Previous Version | Text Only | Print | Product List | Glossary On
Versions: 1 2 3 4 5 6 7 8 9 10 11 12 13 14 15 16 17 18 19
000
FTUS43 KDVN 261600 AAC
TAFDBQ
TAF AMD
KDBQ 261634Z 2617/2712 05012KT P6SM SCT120
     FM261800 01005KT P6SM SCT200
      TEMPO 2708/2712 4SM TSRA BKN035CB=

USA.gov is the U.S. government's official web portal to all federal, state and local government web resources and services.